createdAt,value
2017-12-29T00:00:56.920Z,99.99
2017-12-29T00:01:56.952Z,99.99
2017-12-29T00:02:56.971Z,99.99
2017-12-29T00:03:56.998Z,99.99
2017-12-29T00:04:57.022Z,99.99
2017-12-29T00:05:57.049Z,99.99
2017-12-29T00:06:57.074Z,99.99
2017-12-29T00:07:57.100Z,99.99
2017-12-29T00:08:57.126Z,99.99
2017-12-29T00:09:57.153Z,99.99
2017-12-29T00:10:57.177Z,99.99
2017-12-29T00:11:57.201Z,99.99
2017-12-29T00:12:57.228Z,99.99
2017-12-29T00:13:57.240Z,99.99
2017-12-29T00:14:57.277Z,99.99
2017-12-29T00:15:57.302Z,99.99
2017-12-29T00:16:57.316Z,99.99
2017-12-29T00:17:57.354Z,99.99
2017-12-29T00:18:57.423Z,99.99
2017-12-29T00:19:57.406Z,99.99
2017-12-29T00:20:57.429Z,99.99
2017-12-29T00:21:57.456Z,99.99
2017-12-29T00:22:57.481Z,99.99
2017-12-29T00:23:57.497Z,99.99
2017-12-29T00:24:57.530Z,99.99
2017-12-29T00:25:57.544Z,99.99
2017-12-29T00:26:57.575Z,99.99
2017-12-29T00:27:57.607Z,99.99
2017-12-29T00:28:57.632Z,99.99
2017-12-29T00:29:57.644Z,99.99
2017-12-29T00:30:57.670Z,99.99
2017-12-29T00:31:57.696Z,99.99
2017-12-29T00:32:57.720Z,99.99
2017-12-29T00:33:57.746Z,99.99
2017-12-29T00:34:57.782Z,99.99
2017-12-29T00:35:57.809Z,99.99
2017-12-29T00:36:57.822Z,99.99
2017-12-29T00:37:57.846Z,99.99
2017-12-29T00:38:57.873Z,99.99
2017-12-29T00:39:57.904Z,99.99
2017-12-29T00:40:57.934Z,99.99
2017-12-29T00:41:57.947Z,99.99
2017-12-29T00:42:57.974Z,99.99
2017-12-29T00:43:58.000Z,99.99
2017-12-29T00:44:58.025Z,99.99
2017-12-29T00:45:58.062Z,99.99
2017-12-29T00:46:58.087Z,99.99
2017-12-29T00:47:58.113Z,99.99
2017-12-29T00:48:58.124Z,99.99
2017-12-29T00:49:58.151Z,99.99
2017-12-29T00:50:58.189Z,99.99
2017-12-29T00:51:58.202Z,99.99
2017-12-29T00:52:58.228Z,99.99
2017-12-29T00:53:58.252Z,99.99
2017-12-29T00:54:58.278Z,99.99
2017-12-29T00:55:58.303Z,99.99
2017-12-29T00:56:58.328Z,99.99
2017-12-29T00:57:58.353Z,99.99
2017-12-29T00:58:58.380Z,99.99
2017-12-29T00:59:58.403Z,99.99
2017-12-29T01:00:58.429Z,99.99
2017-12-29T01:01:58.454Z,99.99
2017-12-29T01:02:58.481Z,99.99
2017-12-29T01:03:58.506Z,99.99
2017-12-29T01:04:58.529Z,99.99
2017-12-29T01:05:58.555Z,99.99
2017-12-29T01:06:58.581Z,99.99
2017-12-29T01:07:58.606Z,99.99
2017-12-29T01:08:58.630Z,99.99
2017-12-29T01:09:58.657Z,99.99
2017-12-29T01:10:58.682Z,99.99
2017-12-29T01:11:58.707Z,99.99
2017-12-29T01:12:58.733Z,99.99
2017-12-29T01:13:58.757Z,99.99
2017-12-29T01:14:58.782Z,99.99
2017-12-29T01:15:58.808Z,99.99
2017-12-29T01:16:58.833Z,99.99
2017-12-29T01:17:58.859Z,99.99
2017-12-29T01:18:58.884Z,99.99
2017-12-29T01:19:58.910Z,99.99
2017-12-29T01:20:58.936Z,99.99
2017-12-29T01:21:58.960Z,99.99
2017-12-29T01:22:58.989Z,99.99
2017-12-29T01:23:59.011Z,99.99
2017-12-29T01:24:59.036Z,99.99
2017-12-29T01:25:59.061Z,99.99
2017-12-29T01:26:59.092Z,99.99
2017-12-29T01:27:59.112Z,99.99
2017-12-29T01:28:59.137Z,99.99
2017-12-29T01:29:59.162Z,99.99
2017-12-29T01:30:59.188Z,99.99
2017-12-29T01:31:59.213Z,99.99
2017-12-29T01:32:59.237Z,99.99
2017-12-29T01:33:59.263Z,99.99
2017-12-29T01:34:59.289Z,99.99
2017-12-29T01:35:59.313Z,99.99
2017-12-29T01:36:59.339Z,99.99
2017-12-29T01:37:59.365Z,99.99
2017-12-29T01:38:59.390Z,99.99
2017-12-29T01:39:59.415Z,99.99
2017-12-29T01:40:59.440Z,99.99
2017-12-29T01:41:59.466Z,99.99
2017-12-29T01:42:59.491Z,99.99
2017-12-29T01:43:59.517Z,99.99
2017-12-29T01:44:59.541Z,99.99
2017-12-29T01:45:59.566Z,99.99
2017-12-29T01:46:59.593Z,99.99
2017-12-29T01:47:59.618Z,99.99
2017-12-29T01:48:59.643Z,99.99
2017-12-29T01:49:59.668Z,99.99
2017-12-29T01:50:59.693Z,99.99
2017-12-29T01:51:59.718Z,99.99
2017-12-29T01:52:59.743Z,99.99
2017-12-29T01:53:59.768Z,99.99
2017-12-29T01:54:59.797Z,99.99
2017-12-29T01:55:59.820Z,99.99
2017-12-29T01:56:59.844Z,99.99
2017-12-29T01:57:59.873Z,99.99
2017-12-29T01:58:59.895Z,99.99
2017-12-29T01:59:59.921Z,99.99
2017-12-29T02:00:59.944Z,99.99
2017-12-29T02:01:59.972Z,99.99
2017-12-29T02:02:59.997Z,99.99
2017-12-29T02:04:00.027Z,99.99
2017-12-29T02:05:00.059Z,99.99
2017-12-29T02:06:00.072Z,99.99
2017-12-29T02:07:00.098Z,99.99
2017-12-29T02:08:00.123Z,99.99
2017-12-29T02:09:00.148Z,99.99
2017-12-29T02:10:00.174Z,99.99
2017-12-29T02:11:00.199Z,99.99
2017-12-29T02:12:00.225Z,99.99
2017-12-29T02:13:00.249Z,99.99
2017-12-29T02:14:00.274Z,99.99
2017-12-29T02:15:00.299Z,99.99
2017-12-29T02:16:00.326Z,99.99
2017-12-29T02:17:00.351Z,99.99
2017-12-29T02:18:00.377Z,99.99
2017-12-29T02:19:00.402Z,99.99
2017-12-29T02:20:00.427Z,99.99
2017-12-29T02:21:00.450Z,99.99
2017-12-29T02:22:00.477Z,99.99
2017-12-29T02:23:00.502Z,99.99
2017-12-29T02:24:00.528Z,99.99
2017-12-29T02:25:00.554Z,99.99
2017-12-29T02:26:00.578Z,99.99
2017-12-29T02:27:00.604Z,99.99
2017-12-29T02:28:00.629Z,99.99
2017-12-29T02:29:00.655Z,99.99
2017-12-29T02:30:00.680Z,99.99
2017-12-29T02:31:00.704Z,99.99
2017-12-29T02:32:00.730Z,99.99
2017-12-29T02:33:00.755Z,99.99
2017-12-29T02:34:00.786Z,99.99
2017-12-29T02:35:00.806Z,99.99
2017-12-29T02:36:00.833Z,99.99
2017-12-29T02:37:00.857Z,99.99
2017-12-29T02:38:00.883Z,99.99
2017-12-29T02:39:00.909Z,99.99
2017-12-29T02:40:00.932Z,99.99
2017-12-29T02:41:00.957Z,99.99
2017-12-29T02:42:00.981Z,99.99
2017-12-29T02:43:01.009Z,99.99
2017-12-29T02:44:01.034Z,99.99
2017-12-29T02:45:01.058Z,99.99
2017-12-29T02:46:01.083Z,99.99
2017-12-29T02:47:01.109Z,99.99
2017-12-29T02:48:01.135Z,99.99
2017-12-29T02:49:01.159Z,99.99
2017-12-29T02:50:01.183Z,99.99
2017-12-29T02:51:01.209Z,99.99
2017-12-29T02:52:01.234Z,99.99
2017-12-29T02:53:01.260Z,99.99
2017-12-29T02:54:01.285Z,99.99
2017-12-29T02:55:01.310Z,99.99
2017-12-29T02:56:01.336Z,99.99
2017-12-29T02:57:01.360Z,99.99
2017-12-29T02:58:01.385Z,99.99
2017-12-29T02:59:01.411Z,99.99
2017-12-29T03:00:01.437Z,99.99
2017-12-29T03:01:01.460Z,99.99
2017-12-29T03:02:01.486Z,99.99
2017-12-29T03:03:01.511Z,99.99
2017-12-29T03:04:01.536Z,99.99
2017-12-29T03:05:01.562Z,99.99
2017-12-29T03:06:01.586Z,99.99
2017-12-29T03:07:01.612Z,99.99
2017-12-29T03:08:01.636Z,99.99
2017-12-29T03:09:01.660Z,99.99
2017-12-29T03:10:01.687Z,99.99
2017-12-29T03:11:01.712Z,99.99
2017-12-29T03:12:01.738Z,99.99
2017-12-29T03:13:01.762Z,99.99
2017-12-29T03:14:01.788Z,99.99
2017-12-29T03:15:01.813Z,99.99
2017-12-29T03:16:01.837Z,99.99
2017-12-29T03:17:01.863Z,99.99
2017-12-29T03:18:01.888Z,99.99
2017-12-29T03:19:01.914Z,99.99
2017-12-29T03:20:01.940Z,99.99
2017-12-29T03:21:01.964Z,99.99
2017-12-29T03:22:01.990Z,99.99
2017-12-29T03:23:02.014Z,99.99
2017-12-29T03:24:02.041Z,99.99
2017-12-29T03:25:02.077Z,99.99
2017-12-29T03:26:02.090Z,99.99
2017-12-29T03:27:02.116Z,99.99
2017-12-29T03:28:02.142Z,99.99
2017-12-29T03:29:02.165Z,99.99
2017-12-29T03:30:02.193Z,99.99
2017-12-29T03:31:02.217Z,99.99
2017-12-29T03:32:02.244Z,99.99
2017-12-29T03:33:02.267Z,99.99
2017-12-29T03:34:02.293Z,99.99
2017-12-29T03:35:02.318Z,99.99
2017-12-29T03:36:02.344Z,99.99
2017-12-29T03:37:02.367Z,99.99
2017-12-29T03:38:02.394Z,99.99
2017-12-29T03:39:02.419Z,99.99
2017-12-29T03:40:02.446Z,99.99
2017-12-29T03:41:02.472Z,99.99
2017-12-29T03:42:02.495Z,99.99
2017-12-29T03:43:02.520Z,99.99
2017-12-29T03:44:02.545Z,99.99
2017-12-29T03:45:02.569Z,99.99
2017-12-29T03:46:02.595Z,99.99
2017-12-29T03:47:02.622Z,99.99
2017-12-29T03:48:02.656Z,99.99
2017-12-29T03:49:02.672Z,99.99
2017-12-29T03:50:02.698Z,99.99
2017-12-29T03:51:02.725Z,99.99
2017-12-29T03:52:02.748Z,99.99
2017-12-29T03:53:02.772Z,99.99
2017-12-29T03:54:02.798Z,99.99
2017-12-29T03:55:02.823Z,99.99
2017-12-29T03:56:02.850Z,99.99
2017-12-29T03:57:02.873Z,99.99
2017-12-29T03:58:02.900Z,99.99
2017-12-29T03:59:02.924Z,99.99
2017-12-29T04:00:02.951Z,99.99
2017-12-29T04:01:02.975Z,99.99
2017-12-29T04:02:03.002Z,99.99
2017-12-29T04:03:03.026Z,99.99
2017-12-29T04:04:03.052Z,99.99
2017-12-29T04:05:03.077Z,99.99
2017-12-29T04:06:03.104Z,99.99
2017-12-29T04:07:03.128Z,99.99
2017-12-29T04:08:03.153Z,99.99
2017-12-29T04:09:03.179Z,99.99
2017-12-29T04:10:03.204Z,99.99
2017-12-29T04:11:03.230Z,99.99
2017-12-29T04:12:03.254Z,99.99
2017-12-29T04:13:03.278Z,99.99
2017-12-29T04:14:03.305Z,99.99
2017-12-29T04:15:03.332Z,99.99
2017-12-29T04:16:03.355Z,99.99
2017-12-29T04:17:03.381Z,99.99
2017-12-29T04:18:03.406Z,99.99
2017-12-29T04:19:03.432Z,99.99
2017-12-29T04:20:03.462Z,99.99
2017-12-29T04:21:03.481Z,99.99
2017-12-29T04:22:03.506Z,99.99
2017-12-29T04:23:03.532Z,99.99
2017-12-29T04:24:03.557Z,99.99
2017-12-29T04:25:03.582Z,99.99
2017-12-29T04:26:03.606Z,99.99
2017-12-29T04:27:03.632Z,99.99
2017-12-29T04:28:03.665Z,99.99
2017-12-29T04:29:03.683Z,99.99
2017-12-29T04:30:03.708Z,99.99
2017-12-29T04:31:03.735Z,99.99
2017-12-29T04:32:03.806Z,99.99
2017-12-29T04:33:03.782Z,99.99
2017-12-29T04:34:03.808Z,99.99
2017-12-29T04:35:03.832Z,99.99
2017-12-29T04:36:03.859Z,99.99
2017-12-29T04:37:03.883Z,99.99
2017-12-29T04:38:03.909Z,99.99
2017-12-29T04:39:03.933Z,99.99
2017-12-29T04:40:03.959Z,99.99
2017-12-29T04:41:03.984Z,99.99
2017-12-29T04:42:04.011Z,99.99
2017-12-29T04:43:04.034Z,99.99
2017-12-29T04:44:04.059Z,99.99
2017-12-29T04:45:04.084Z,99.99
2017-12-29T04:46:04.110Z,99.99
2017-12-29T04:47:04.134Z,99.99
2017-12-29T04:48:04.158Z,99.99
2017-12-29T04:49:04.183Z,99.99
2017-12-29T04:50:04.209Z,99.99
2017-12-29T04:51:04.234Z,99.99
2017-12-29T04:52:04.260Z,99.99
2017-12-29T04:53:04.284Z,99.99
2017-12-29T04:54:04.309Z,99.99
2017-12-29T04:55:04.333Z,99.99
2017-12-29T04:56:04.359Z,99.99
2017-12-29T04:57:04.389Z,99.99
2017-12-29T04:58:04.408Z,99.99
2017-12-29T04:59:04.434Z,99.99
2017-12-29T05:00:04.459Z,99.99
2017-12-29T05:01:04.483Z,99.99
2017-12-29T05:02:04.508Z,99.99
2017-12-29T05:03:04.533Z,99.99
2017-12-29T05:04:04.557Z,99.99
2017-12-29T05:05:04.582Z,99.99
2017-12-29T05:06:04.631Z,99.99
2017-12-29T05:07:04.633Z,99.99
2017-12-29T05:08:04.660Z,99.99
2017-12-29T05:09:04.682Z,99.99
2017-12-29T05:10:04.706Z,99.99
2017-12-29T05:11:04.730Z,99.99
2017-12-29T05:12:04.758Z,99.99
2017-12-29T05:13:04.780Z,99.99
2017-12-29T05:14:04.805Z,99.99
2017-12-29T05:15:04.831Z,99.99
2017-12-29T05:16:04.855Z,99.99
2017-12-29T05:17:04.879Z,99.99
2017-12-29T05:18:04.903Z,99.99
2017-12-29T05:19:04.928Z,99.99
2017-12-29T05:20:04.953Z,99.99
2017-12-29T05:21:04.976Z,99.99
2017-12-29T05:22:05.004Z,99.99
2017-12-29T05:23:05.030Z,99.99
2017-12-29T05:24:05.052Z,99.99
2017-12-29T05:25:05.075Z,99.99
2017-12-29T05:26:05.101Z,99.99
2017-12-29T05:27:05.126Z,99.99
2017-12-29T05:28:05.150Z,99.99
2017-12-29T05:29:05.174Z,99.99
2017-12-29T05:30:05.198Z,99.99
2017-12-29T05:31:05.224Z,99.99
2017-12-29T05:32:05.248Z,99.99
2017-12-29T05:33:05.280Z,99.99
2017-12-29T05:34:05.296Z,99.99
2017-12-29T05:35:05.321Z,99.99
2017-12-29T05:36:05.346Z,99.99
2017-12-29T05:37:05.375Z,99.99
2017-12-29T05:38:05.393Z,99.99
2017-12-29T05:39:05.418Z,99.99
2017-12-29T05:40:05.443Z,99.99
2017-12-29T05:41:05.470Z,99.99
2017-12-29T05:42:05.492Z,99.99
2017-12-29T05:43:05.517Z,99.99
2017-12-29T05:44:05.540Z,99.99
2017-12-29T05:45:05.564Z,99.99
2017-12-29T05:46:05.591Z,99.99
2017-12-29T05:47:05.612Z,99.99
2017-12-29T05:48:05.639Z,99.99
2017-12-29T05:49:05.661Z,99.99
2017-12-29T05:50:05.685Z,99.99
2017-12-29T05:51:05.710Z,99.99
2017-12-29T05:52:05.736Z,99.99
2017-12-29T05:53:05.758Z,99.99
2017-12-29T05:54:05.782Z,99.99
2017-12-29T05:55:05.808Z,99.99
2017-12-29T05:56:05.832Z,99.99
2017-12-29T05:57:05.855Z,99.99
2017-12-29T05:58:05.880Z,99.99
2017-12-29T05:59:05.904Z,99.99
2017-12-29T06:00:05.928Z,99.99
2017-12-29T06:01:05.958Z,99.99
2017-12-29T06:02:05.985Z,99.99
2017-12-29T06:03:06.001Z,99.99
2017-12-29T06:04:06.026Z,99.99
2017-12-29T06:05:06.050Z,99.99
2017-12-29T06:06:06.073Z,99.99
2017-12-29T06:07:06.097Z,99.99
2017-12-29T06:08:06.123Z,99.99
2017-12-29T06:09:06.146Z,99.99
2017-12-29T06:10:06.170Z,99.99
2017-12-29T06:11:06.196Z,99.99
2017-12-29T06:12:06.219Z,99.99
2017-12-29T06:13:06.243Z,99.99
2017-12-29T06:14:06.267Z,99.99
2017-12-29T06:15:06.291Z,99.99
2017-12-29T06:16:06.316Z,99.99
2017-12-29T06:17:06.339Z,99.99
2017-12-29T06:18:06.365Z,99.99
2017-12-29T06:19:06.388Z,99.99
2017-12-29T06:20:06.411Z,99.99
2017-12-29T06:21:06.436Z,99.99
2017-12-29T06:22:06.459Z,99.99
2017-12-29T06:23:06.483Z,99.99
2017-12-29T06:24:06.508Z,99.99
2017-12-29T06:25:06.530Z,99.99
2017-12-29T06:26:06.555Z,99.99
2017-12-29T06:27:06.580Z,99.99
2017-12-29T06:28:06.604Z,99.99
2017-12-29T06:29:06.630Z,99.99
2017-12-29T06:30:06.653Z,99.99
2017-12-29T06:31:06.676Z,99.99
2017-12-29T06:32:06.700Z,99.99
2017-12-29T06:33:06.724Z,99.99
2017-12-29T06:34:06.750Z,99.99
2017-12-29T06:35:06.774Z,99.99
2017-12-29T06:36:06.796Z,99.99
2017-12-29T06:37:06.820Z,99.99
2017-12-29T06:38:06.843Z,99.99
2017-12-29T06:39:06.869Z,99.99
2017-12-29T06:40:06.894Z,99.99
2017-12-29T06:41:06.917Z,99.99
2017-12-29T06:42:06.941Z,99.99
2017-12-29T06:43:06.964Z,99.99
2017-12-29T06:44:06.988Z,99.99
2017-12-29T06:45:07.015Z,99.99
2017-12-29T06:46:07.037Z,99.99
2017-12-29T06:47:07.061Z,99.99
2017-12-29T06:48:07.085Z,99.99
2017-12-29T06:49:07.109Z,99.99
2017-12-29T06:50:07.132Z,99.99
2017-12-29T06:51:07.158Z,99.99
2017-12-29T06:52:07.183Z,99.99
2017-12-29T06:53:07.204Z,99.99
2017-12-29T06:54:07.230Z,99.99
2017-12-29T06:55:07.255Z,99.99
2017-12-29T06:56:07.279Z,99.99
2017-12-29T06:57:07.301Z,99.99
2017-12-29T06:58:07.325Z,99.99
2017-12-29T06:59:07.351Z,99.99
2017-12-29T07:00:07.375Z,99.99
2017-12-29T07:01:07.398Z,99.99
2017-12-29T07:02:07.423Z,99.99
2017-12-29T07:03:07.447Z,99.99
2017-12-29T07:04:07.478Z,99.99
2017-12-29T07:05:07.496Z,99.99
2017-12-29T07:06:07.554Z,99.99
2017-12-29T07:07:07.546Z,99.99
2017-12-29T07:08:07.568Z,99.99
2017-12-29T07:09:07.594Z,99.99
2017-12-29T07:10:07.617Z,99.99
2017-12-29T07:11:07.640Z,99.99
2017-12-29T07:12:07.664Z,99.99
2017-12-29T07:13:07.687Z,99.99
2017-12-29T07:14:07.712Z,99.99
2017-12-29T07:15:07.739Z,99.99
2017-12-29T07:16:07.760Z,99.99
2017-12-29T07:17:07.783Z,99.99
2017-12-29T07:18:07.808Z,99.99
2017-12-29T07:19:07.833Z,99.99
2017-12-29T07:20:07.857Z,99.99
2017-12-29T07:21:07.882Z,99.99
2017-12-29T07:22:07.906Z,99.99
2017-12-29T07:23:07.931Z,99.99
2017-12-29T07:24:07.955Z,99.99
2017-12-29T07:25:07.978Z,99.99
2017-12-29T07:26:08.003Z,99.99
2017-12-29T07:27:08.028Z,99.99
2017-12-29T07:28:08.052Z,99.99
2017-12-29T07:29:08.074Z,99.99
2017-12-29T07:30:08.108Z,99.99
2017-12-29T07:31:08.125Z,99.99
2017-12-29T07:32:08.150Z,99.99
2017-12-29T07:33:08.172Z,99.99
2017-12-29T07:34:08.198Z,99.99
2017-12-29T07:35:08.224Z,99.99
2017-12-29T07:36:08.247Z,99.99
2017-12-29T07:37:08.271Z,99.99
2017-12-29T07:38:08.297Z,99.99
2017-12-29T07:39:08.322Z,99.99
2017-12-29T07:40:08.346Z,99.99
2017-12-29T07:41:08.370Z,99.99
2017-12-29T07:42:08.394Z,99.99
2017-12-29T07:43:08.420Z,99.99
2017-12-29T07:44:08.445Z,99.99
2017-12-29T07:45:08.469Z,99.99
2017-12-29T07:46:08.495Z,99.99
2017-12-29T07:47:08.518Z,99.99
2017-12-29T07:48:08.544Z,99.99
2017-12-29T07:49:08.569Z,99.99
2017-12-29T07:50:08.594Z,99.48
2017-12-29T07:51:08.619Z,94.37
2017-12-29T07:52:08.644Z,91.42
2017-12-29T07:53:08.668Z,91.42
2017-12-29T07:54:08.693Z,90.71
2017-12-29T07:55:08.719Z,87.43
2017-12-29T07:56:08.745Z,86.43
2017-12-29T07:57:08.769Z,83.78
2017-12-29T07:58:08.795Z,82.29
2017-12-29T07:59:08.819Z,79.92
2017-12-29T08:00:08.847Z,80.05
2017-12-29T08:01:08.872Z,77.87
2017-12-29T08:02:08.897Z,77.15
2017-12-29T08:03:08.923Z,76.39
2017-12-29T08:04:08.951Z,77.45
2017-12-29T08:05:08.976Z,78.25
2017-12-29T08:06:09.004Z,75.53
2017-12-29T08:07:09.035Z,73.47
2017-12-29T08:08:09.056Z,73.38
2017-12-29T08:09:09.081Z,71.86
2017-12-29T08:10:09.109Z,69.23
2017-12-29T08:11:09.136Z,68.75
2017-12-29T08:12:09.162Z,67.57
2017-12-29T08:13:09.190Z,66.68
2017-12-29T08:14:09.216Z,66.68
2017-12-29T08:15:09.245Z,67.79
2017-12-29T08:16:09.273Z,73.71
2017-12-29T08:17:09.300Z,76.35
2017-12-29T08:18:09.326Z,74.48
2017-12-29T08:19:09.355Z,71.98
2017-12-29T08:20:09.398Z,69.07
2017-12-29T08:21:09.410Z,66.44
2017-12-29T08:22:09.438Z,64.65
2017-12-29T08:23:09.466Z,66.94
2017-12-29T08:24:09.494Z,67.26
2017-12-29T08:25:09.530Z,66.28
2017-12-29T08:26:09.551Z,65.13
2017-12-29T08:27:09.581Z,64.56
2017-12-29T08:28:09.610Z,63.73
2017-12-29T08:29:09.641Z,62.24
2017-12-29T08:30:09.667Z,60.24
2017-12-29T08:31:09.696Z,60.94
2017-12-29T08:32:09.728Z,61.76
2017-12-29T08:33:09.755Z,60.02
2017-12-29T08:34:09.785Z,55.87
2017-12-29T08:35:09.815Z,56.57
2017-12-29T08:36:09.845Z,54.30
2017-12-29T08:37:09.874Z,52.80
2017-12-29T08:38:09.904Z,51.48
2017-12-29T08:39:09.934Z,48.33
2017-12-29T08:40:09.970Z,46.12
2017-12-29T08:41:09.995Z,47.53
2017-12-29T08:42:10.025Z,47.08
2017-12-29T08:43:10.057Z,45.36
2017-12-29T08:44:10.087Z,45.19
2017-12-29T08:45:10.117Z,45.40
2017-12-29T08:46:10.149Z,45.02
2017-12-29T08:47:10.180Z,43.99
2017-12-29T08:48:10.211Z,42.46
2017-12-29T08:49:10.242Z,41.88
2017-12-29T08:50:10.275Z,42.30
2017-12-29T08:51:10.307Z,43.59
2017-12-29T08:52:10.339Z,44.09
2017-12-29T08:53:10.369Z,42.10
2017-12-29T08:54:10.403Z,40.29
2017-12-29T08:55:10.436Z,38.56
2017-12-29T08:56:10.469Z,38.95
2017-12-29T08:57:10.500Z,38.93
2017-12-29T08:58:10.534Z,41.15
2017-12-29T08:59:10.568Z,44.58
2017-12-29T09:00:10.600Z,50.54
2017-12-29T09:01:10.634Z,52.71
2017-12-29T09:02:10.666Z,54.68
2017-12-29T09:03:10.702Z,58.34
2017-12-29T09:04:10.733Z,61.45
2017-12-29T09:05:10.766Z,61.16
2017-12-29T09:06:10.799Z,54.79
2017-12-29T09:07:10.834Z,51.03
2017-12-29T09:08:10.865Z,46.96
2017-12-29T09:09:10.896Z,45.09
2017-12-29T09:10:10.929Z,42.05
2017-12-29T09:11:10.962Z,41.07
2017-12-29T09:12:10.996Z,42.22
2017-12-29T09:13:11.028Z,40.61
2017-12-29T09:14:11.062Z,39.79
2017-12-29T09:15:11.094Z,38.39
2017-12-29T09:16:11.129Z,36.11
2017-12-29T09:17:11.166Z,34.11
2017-12-29T09:18:11.197Z,35.59
2017-12-29T09:19:11.230Z,35.32
2017-12-29T09:20:11.267Z,36.28
2017-12-29T09:21:11.298Z,36.22
2017-12-29T09:22:11.335Z,34.49
2017-12-29T09:23:11.370Z,35.78
2017-12-29T09:24:11.406Z,37.24
2017-12-29T09:25:11.440Z,35.82
2017-12-29T09:26:11.477Z,34.01
2017-12-29T09:27:11.512Z,32.87
2017-12-29T09:28:11.548Z,34.19
2017-12-29T09:29:11.583Z,35.85
2017-12-29T09:30:11.619Z,32.49
2017-12-29T09:31:11.657Z,32.09
2017-12-29T09:32:11.693Z,31.83
2017-12-29T09:33:11.729Z,31.45
2017-12-29T09:34:11.770Z,31.65
2017-12-29T09:35:11.804Z,32.23
2017-12-29T09:36:11.841Z,34.20
2017-12-29T09:37:11.878Z,34.43
2017-12-29T09:38:11.915Z,33.97
2017-12-29T09:39:11.954Z,32.04
2017-12-29T09:40:11.993Z,30.00
2017-12-29T09:41:12.050Z,29.81
2017-12-29T09:42:12.069Z,30.69
2017-12-29T09:43:12.106Z,29.84
2017-12-29T09:44:12.146Z,28.59
2017-12-29T09:45:12.182Z,29.06
2017-12-29T09:46:12.221Z,30.21
2017-12-29T09:47:12.259Z,30.68
2017-12-29T09:48:12.300Z,30.66
2017-12-29T09:49:12.338Z,30.84
2017-12-29T09:50:12.375Z,32.47
2017-12-29T09:51:12.413Z,31.15
2017-12-29T09:52:12.454Z,30.60
2017-12-29T09:53:12.491Z,29.27
2017-12-29T09:54:12.530Z,30.58
2017-12-29T09:55:12.568Z,30.38
2017-12-29T09:56:12.608Z,30.97
2017-12-29T09:57:12.647Z,30.95
2017-12-29T09:58:12.686Z,30.98
2017-12-29T09:59:12.726Z,31.34
2017-12-29T10:00:12.764Z,30.88
2017-12-29T10:01:12.803Z,29.27
2017-12-29T10:02:12.843Z,28.11
2017-12-29T10:03:12.882Z,28.09
2017-12-29T10:04:12.922Z,28.97
2017-12-29T10:05:12.959Z,29.08
2017-12-29T10:06:13.003Z,28.42
2017-12-29T10:07:13.039Z,27.09
2017-12-29T10:08:13.079Z,27.15
2017-12-29T10:09:13.119Z,28.37
2017-12-29T10:10:13.160Z,28.08
2017-12-29T10:11:13.199Z,28.22
2017-12-29T10:12:13.239Z,30.15
2017-12-29T10:13:13.280Z,31.41
2017-12-29T10:14:13.321Z,29.99
2017-12-29T10:15:13.361Z,30.19
2017-12-29T10:16:13.401Z,29.15
2017-12-29T10:17:13.440Z,28.41
2017-12-29T10:18:13.482Z,27.93
2017-12-29T10:19:13.522Z,28.23
2017-12-29T10:20:13.562Z,28.16
2017-12-29T10:21:13.603Z,26.43
2017-12-29T10:22:13.645Z,24.99
2017-12-29T10:23:13.685Z,24.68
2017-12-29T10:24:13.727Z,26.42
2017-12-29T10:25:13.765Z,26.62
2017-12-29T10:26:13.806Z,25.95
2017-12-29T10:27:13.849Z,24.72
2017-12-29T10:28:13.889Z,24.33
2017-12-29T10:29:13.932Z,23.28
2017-12-29T10:30:13.974Z,24.24
2017-12-29T10:31:14.016Z,23.76
2017-12-29T10:32:14.056Z,23.87
2017-12-29T10:33:14.098Z,23.68
2017-12-29T10:34:14.140Z,23.19
2017-12-29T10:35:14.183Z,22.99
2017-12-29T10:36:14.229Z,23.86
2017-12-29T10:37:14.272Z,24.50
2017-12-29T10:38:14.313Z,25.24
2017-12-29T10:39:14.353Z,26.02
2017-12-29T10:40:14.395Z,26.29
2017-12-29T10:41:14.437Z,26.48
2017-12-29T10:42:14.479Z,28.02
2017-12-29T10:43:14.522Z,27.98
2017-12-29T10:44:14.564Z,28.27
2017-12-29T10:45:14.604Z,28.11
2017-12-29T10:46:14.647Z,26.98
2017-12-29T10:47:14.689Z,28.62
2017-12-29T10:48:14.731Z,27.92
2017-12-29T10:49:14.774Z,26.97
2017-12-29T10:50:14.816Z,26.89
2017-12-29T10:51:14.859Z,26.12
2017-12-29T10:52:14.900Z,26.10
2017-12-29T10:53:14.941Z,27.20
2017-12-29T10:54:14.984Z,29.59
2017-12-29T10:55:15.027Z,31.48
2017-12-29T10:56:15.069Z,29.66
2017-12-29T10:57:15.109Z,29.86
2017-12-29T10:58:15.152Z,31.02
2017-12-29T10:59:15.192Z,30.84
2017-12-29T11:00:15.236Z,29.58
2017-12-29T11:01:15.276Z,30.18
2017-12-29T11:02:15.318Z,29.02
2017-12-29T11:03:15.361Z,28.07
2017-12-29T11:04:15.400Z,28.04
2017-12-29T11:05:15.441Z,28.39
2017-12-29T11:06:15.482Z,30.76
2017-12-29T11:07:15.529Z,32.14
2017-12-29T11:08:15.565Z,31.34
2017-12-29T11:09:15.608Z,32.01
2017-12-29T11:10:15.645Z,31.45
2017-12-29T11:11:15.688Z,31.29
2017-12-29T11:12:15.729Z,29.94
2017-12-29T11:13:15.769Z,29.75
2017-12-29T11:14:15.815Z,32.41
2017-12-29T11:15:15.850Z,32.31
2017-12-29T11:16:15.894Z,33.94
2017-12-29T11:17:15.931Z,32.41
2017-12-29T11:18:15.973Z,33.14
2017-12-29T11:19:16.014Z,32.92
2017-12-29T11:20:16.055Z,34.47
2017-12-29T11:21:16.094Z,33.44
2017-12-29T11:22:16.140Z,35.85
2017-12-29T11:23:16.176Z,35.94
2017-12-29T11:24:16.214Z,37.40
2017-12-29T11:25:16.253Z,37.57
2017-12-29T11:26:16.294Z,36.60
2017-12-29T11:27:16.334Z,39.08
2017-12-29T11:28:16.373Z,39.84
2017-12-29T11:29:16.413Z,38.81
2017-12-29T11:30:16.450Z,38.81
2017-12-29T11:31:16.489Z,36.52
2017-12-29T11:32:16.530Z,38.12
2017-12-29T11:33:16.567Z,38.81
2017-12-29T11:34:16.606Z,38.35
2017-12-29T11:35:16.645Z,38.35
2017-12-29T11:36:16.685Z,37.84
2017-12-29T11:37:16.722Z,42.57
2017-12-29T11:38:16.758Z,46.97
2017-12-29T11:39:16.798Z,44.94
2017-12-29T11:40:16.836Z,43.51
2017-12-29T11:41:16.872Z,43.79
2017-12-29T11:42:16.911Z,43.68
2017-12-29T11:43:16.949Z,44.73
2017-12-29T11:44:16.986Z,43.56
2017-12-29T11:45:17.021Z,44.70
2017-12-29T11:46:17.060Z,44.51
2017-12-29T11:47:17.096Z,44.70
2017-12-29T11:48:17.132Z,44.99
2017-12-29T11:49:17.169Z,46.99
2017-12-29T11:50:17.205Z,45.35
2017-12-29T11:51:17.241Z,46.30
2017-12-29T11:52:17.282Z,46.28
2017-12-29T11:53:17.312Z,47.71
2017-12-29T11:54:17.347Z,50.18
2017-12-29T11:55:17.383Z,49.58
2017-12-29T11:56:17.418Z,49.68
2017-12-29T11:57:17.453Z,50.54
2017-12-29T11:58:17.487Z,50.63
2017-12-29T11:59:17.522Z,51.49
2017-12-29T12:00:17.556Z,50.73
2017-12-29T12:01:17.588Z,51.39
2017-12-29T12:02:17.623Z,50.54
2017-12-29T12:03:17.657Z,51.68
2017-12-29T12:04:17.691Z,51.68
2017-12-29T12:05:17.728Z,51.20
2017-12-29T12:06:17.757Z,50.63
2017-12-29T12:07:17.792Z,52.70
2017-12-29T12:08:17.823Z,53.01
2017-12-29T12:09:17.856Z,53.39
2017-12-29T12:10:17.889Z,52.13
2017-12-29T12:11:17.923Z,49.75
2017-12-29T12:12:17.955Z,50.70
2017-12-29T12:13:17.989Z,49.35
2017-12-29T12:14:18.020Z,50.39
2017-12-29T12:15:18.054Z,53.34
2017-12-29T12:16:18.087Z,54.86
2017-12-29T12:17:18.118Z,54.83
2017-12-29T12:18:18.152Z,55.69
2017-12-29T12:19:18.186Z,55.30
2017-12-29T12:20:18.216Z,57.78
2017-12-29T12:21:18.248Z,55.11
2017-12-29T12:22:18.288Z,56.07
2017-12-29T12:23:18.313Z,55.59
2017-12-29T12:24:18.345Z,56.73
2017-12-29T12:25:18.375Z,56.35
2017-12-29T12:26:18.407Z,57.87
2017-12-29T12:27:18.440Z,56.83
2017-12-29T12:28:18.472Z,54.74
2017-12-29T12:29:18.503Z,53.59
2017-12-29T12:30:18.534Z,54.07
2017-12-29T12:31:18.566Z,51.79
2017-12-29T12:32:18.597Z,49.41
2017-12-29T12:33:18.627Z,50.72
2017-12-29T12:34:18.658Z,54.33
2017-12-29T12:35:18.690Z,56.99
2017-12-29T12:36:18.721Z,58.51
2017-12-29T12:37:18.752Z,55.94
2017-12-29T12:38:18.782Z,57.56
2017-12-29T12:39:18.813Z,55.28
2017-12-29T12:40:18.845Z,62.59
2017-12-29T12:41:18.874Z,66.11
2017-12-29T12:42:18.905Z,66.11
2017-12-29T12:43:18.936Z,62.69
2017-12-29T12:44:18.965Z,57.09
2017-12-29T12:45:18.996Z,54.24
2017-12-29T12:46:19.026Z,59.08
2017-12-29T12:47:19.057Z,59.74
2017-12-29T12:48:19.088Z,58.22
2017-12-29T12:49:19.118Z,59.17
2017-12-29T12:50:19.149Z,60.79
2017-12-29T12:51:19.179Z,57.65
2017-12-29T12:52:19.208Z,56.58
2017-12-29T12:53:19.240Z,56.20